Time;durP1;ratioP1;P1;durP2;ratioP2;P2;SDS_P1;SDS_P2;PMS_P1;PMS_P2;Temp;Humidity;BMP_temperature;BMP_pressure;BME280_temperature;BME280_humidity;BME280_pressure;Samples;Min_cycle;Max_cycle;Signal;HPM_P1;HPM_P2
2022/10/18 00:01:26;;;;;;;39.15;26.17;;;12.50;99.90;;;12.83;100.00;99982.25;5020239;28;130496;-76
2022/10/18 00:03:55;;;;;;;37.85;26.25;;;12.50;99.90;;;12.77;100.00;99975.34;5002469;28;130236;-75
2022/10/18 00:06:23;;;;;;;41.08;26.92;;;12.50;99.90;;;12.76;100.00;99971.00;5021983;28;119712;-74
2022/10/18 00:08:52;;;;;;;41.20;27.10;;;12.40;99.90;;;12.74;100.00;99975.97;5003125;28;120607;-75
2022/10/18 00:11:21;;;;;;;40.90;26.55;;;12.50;99.90;;;12.77;100.00;99957.06;5001049;28;130942;-74
2022/10/18 00:13:50;;;;;;;41.03;26.85;;;12.50;99.90;;;12.79;100.00;99951.31;5001518;28;129548;-74
2022/10/18 00:16:19;;;;;;;42.05;26.40;;;12.50;99.90;;;12.77;100.00;99948.91;5001332;28;119537;-76
2022/10/18 00:18:50;;;;;;;42.47;26.15;;;12.50;99.90;;;12.80;100.00;99942.03;4983562;28;119975;-75
2022/10/18 00:21:22;;;;;;;38.75;26.35;;;12.50;99.90;;;12.77;100.00;99934.50;4999891;28;131430;-77
2022/10/18 00:23:53;;;;;;;37.75;26.52;;;12.50;99.90;;;12.77;100.00;99937.22;5000157;28;130241;-76
2022/10/18 00:26:24;;;;;;;41.25;27.77;;;12.50;99.90;;;12.80;100.00;99935.81;5001532;28;120291;-76
2022/10/18 00:28:55;;;;;;;38.60;25.83;;;12.50;99.90;;;12.82;100.00;99925.38;5001453;28;119706;-77
2022/10/18 00:31:27;;;;;;;40.55;27.23;;;12.40;99.90;;;12.82;100.00;99920.72;4986293;28;130778;-76
2022/10/18 00:33:59;;;;;;;40.50;27.95;;;12.40;99.90;;;12.84;100.00;99921.22;5000781;28;130276;-76
2022/10/18 00:36:32;;;;;;;38.08;26.08;;;12.40;99.90;;;12.86;100.00;99907.31;5000039;28;120106;-75
2022/10/18 00:39:02;;;;;;;41.95;29.08;;;12.40;99.90;;;12.88;100.00;99900.41;4985469;28;118910;-77
2022/10/18 00:41:33;;;;;;;39.80;26.60;;;12.40;99.90;;;12.89;100.00;99893.84;4985960;28;130155;-77
2022/10/18 00:44:05;;;;;;;40.45;26.48;;;12.40;99.90;;;12.87;100.00;99877.03;5000692;28;129465;-77
2022/10/18 00:46:35;;;;;;;42.78;28.90;;;12.40;99.90;;;12.87;100.00;99877.03;4999377;28;122046;-76
2022/10/18 00:49:11;;;;;;;43.58;28.33;;;12.40;99.90;;;12.89;100.00;99880.22;4999912;28;122053;-76
2022/10/18 00:51:45;;;;;;;40.30;27.52;;;12.40;99.90;;;12.90;100.00;99879.13;4999953;28;130044;-77
2022/10/18 00:54:15;;;;;;;41.45;28.77;;;12.40;99.90;;;12.93;100.00;99892.09;4986224;28;128193;-76
2022/10/18 00:56:44;;;;;;;47.35;29.75;;;12.40;99.90;;;12.90;100.00;99881.84;5000834;28;119695;-76
2022/10/18 00:59:14;;;;;;;43.65;28.70;;;12.50;99.90;;;12.91;100.00;99877.97;5000780;28;119599;-77
2022/10/18 01:01:42;;;;;;;44.08;28.05;;;12.40;99.90;;;12.91;100.00;99864.34;4985602;28;128802;-76
2022/10/18 01:04:13;;;;;;;41.20;27.50;;;12.40;99.90;;;12.93;100.00;99858.59;4982892;28;129476;-75
2022/10/18 01:06:51;;;;;;;41.13;28.27;;;12.50;99.90;;;12.95;100.00;99867.25;4971265;28;118706;-77
2022/10/18 01:09:28;;;;;;;40.28;27.20;;;12.50;99.90;;;12.99;100.00;99851.06;5021778;27;119706;-77
2022/10/18 01:12:16;;;;;;;39.15;26.98;;;12.60;99.90;;;13.05;100.00;99857.97;5019337;27;129826;-78
2022/10/18 01:14:54;;;;;;;40.05;26.23;;;12.60;99.90;;;13.07;100.00;99847.53;5020143;28;129430;-76
2022/10/18 01:17:31;;;;;;;41.28;26.95;;;12.60;99.90;;;13.09;100.00;99845.31;4988990;28;118712;-78
2022/10/18 01:21:08;;;;;;;37.10;26.35;;;12.60;99.90;;;13.05;100.00;99838.91;4982960;28;119081;-76
2022/10/18 01:24:23;;;;;;;38.35;26.67;;;12.70;99.90;;;13.06;100.00;99829.63;5000061;28;130294;-77
2022/10/18 01:27:33;;;;;;;37.70;27.30;;;12.90;99.90;;;13.11;100.00;99826.72;4989667;28;129449;-78
2022/10/18 01:30:52;;;;;;;38.83;25.38;;;12.90;99.90;;;13.23;100.00;99813.25;4966309;28;119363;-77
2022/10/18 01:33:41;;;;;;;36.90;25.50;;;13.00;99.90;;;13.24;100.00;99812.13;5002802;28;119336;-77
2022/10/18 01:36:19;;;;;;;33.50;25.23;;;13.10;99.90;;;13.30;100.00;99808.09;4984818;28;129793;-76
2022/10/18 01:38:51;;;;;;;34.67;23.73;;;13.10;99.90;;;13.33;100.00;99794.97;4999695;28;129855;-76
2022/10/18 01:41:23;;;;;;;30.58;22.17;;;13.20;99.90;;;13.40;100.00;99789.84;5001732;28;121819;-75
2022/10/18 01:43:57;;;;;;;30.98;23.67;;;13.30;99.90;;;13.45;100.00;99781.53;5004464;28;122295;-75
2022/10/18 01:46:29;;;;;;;30.63;22.65;;;13.30;99.90;;;13.49;100.00;99771.56;4985346;28;129298;-75
2022/10/18 01:48:58;;;;;;;35.90;23.73;;;13.30;99.90;;;13.49;100.00;99766.09;4999974;28;129434;-75
2022/10/18 01:51:29;;;;;;;32.20;22.58;;;13.30;99.90;;;13.56;100.00;99766.41;4985369;28;119280;-76
2022/10/18 01:53:58;;;;;;;31.58;22.17;;;13.30;99.90;;;13.56;100.00;99763.69;4987308;28;119162;-76
2022/10/18 01:56:37;;;;;;;31.23;22.05;;;13.40;99.90;;;13.55;100.00;99756.63;4998911;28;130655;-76
2022/10/18 01:59:39;;;;;;;31.95;22.80;;;13.30;99.90;;;13.49;100.00;99757.91;5000034;28;129627;-75
2022/10/18 02:02:22;;;;;;;34.28;20.83;;;13.30;99.90;;;13.51;100.00;99763.88;4999921;28;119576;-75
2022/10/18 02:04:59;;;;;;;32.40;21.10;;;13.30;99.90;;;13.56;100.00;99760.97;5006739;28;118561;-75
2022/10/18 02:07:37;;;;;;;29.95;20.95;;;13.40;99.90;;;13.61;100.00;99763.50;5002974;28;129886;-76
2022/10/18 02:10:10;;;;;;;32.00;21.70;;;13.50;99.90;;;13.60;100.00;99761.94;5000629;28;130049;-77
2022/10/18 02:12:44;;;;;;;34.00;23.48;;;13.50;99.90;;;13.61;100.00;99747.16;4988373;28;119269;-75
2022/10/18 02:15:17;;;;;;;30.05;21.17;;;13.50;99.90;;;13.63;100.00;99744.09;5000901;28;119600;-75
2022/10/18 02:17:47;;;;;;;27.55;20.60;;;13.50;99.90;;;13.63;100.00;99735.91;5001434;28;129260;-74
2022/10/18 02:20:20;;;;;;;26.33;18.92;;;13.50;99.90;;;13.59;100.00;99733.03;4984688;28;129360;-74
2022/10/18 02:22:50;;;;;;;28.55;21.75;;;13.40;99.90;;;13.58;100.00;99731.44;4983844;28;119653;-77
2022/10/18 02:25:24;;;;;;;30.02;20.38;;;13.30;99.90;;;13.48;100.00;99729.06;5001170;28;119723;-76
2022/10/18 02:27:56;;;;;;;30.25;21.40;;;13.30;99.90;;;13.46;100.00;99720.41;4999502;28;131003;-77
2022/10/18 02:30:33;;;;;;;29.02;21.10;;;13.30;99.90;;;13.43;100.00;99718.31;4999647;28;130212;-75
2022/10/18 02:33:13;;;;;;;31.20;20.25;;;13.20;99.90;;;13.42;100.00;99722.19;4984648;28;121512;-77
2022/10/18 02:35:47;;;;;;;30.35;20.92;;;13.20;99.90;;;13.41;100.00;99704.22;5001729;28;121873;-75
2022/10/18 02:38:18;;;;;;;30.42;21.20;;;13.20;99.90;;;13.39;100.00;99712.72;4987427;28;130205;-75
2022/10/18 02:40:46;;;;;;;29.73;20.48;;;13.20;99.90;;;13.41;100.00;99698.78;5000817;28;129899;-76
2022/10/18 02:43:15;;;;;;;28.40;20.42;;;13.20;99.90;;;13.39;100.00;99690.94;5006379;28;119421;-76
2022/10/18 02:45:43;;;;;;;27.35;20.33;;;13.30;99.90;;;13.44;100.00;99687.22;5000330;28;119458;-75
2022/10/18 02:48:14;;;;;;;28.27;19.45;;;13.30;99.90;;;13.43;100.00;99685.63;5004782;28;129808;-75
2022/10/18 02:50:42;;;;;;;28.60;20.17;;;13.40;99.90;;;13.49;100.00;99678.84;4981878;28;129515;-75
2022/10/18 02:53:11;;;;;;;27.27;20.00;;;13.30;99.90;;;13.48;100.00;99672.63;4985171;28;120310;-75
2022/10/18 02:55:39;;;;;;;30.17;19.92;;;13.40;99.90;;;13.50;100.00;99668.78;5001883;28;119085;-76
2022/10/18 02:58:07;;;;;;;29.55;20.75;;;13.40;99.90;;;13.54;100.00;99667.78;4998689;28;129829;-75
2022/10/18 03:00:36;;;;;;;29.77;20.20;;;13.40;99.90;;;13.51;100.00;99654.00;4981284;28;129628;-75
2022/10/18 03:03:05;;;;;;;23.35;18.83;;;13.40;99.90;;;13.46;100.00;99652.25;5002586;28;119772;-76
2022/10/18 03:05:35;;;;;;;29.27;20.10;;;13.40;99.90;;;13.50;100.00;99645.03;5004591;28;119777;-75
2022/10/18 03:08:04;;;;;;;24.88;19.48;;;13.50;99.90;;;13.50;100.00;99653.19;5003180;28;130368;-76
2022/10/18 03:10:32;;;;;;;27.90;19.95;;;13.40;99.90;;;13.51;100.00;99648.53;5006357;28;129359;-77
2022/10/18 03:13:01;;;;;;;31.75;19.48;;;13.50;99.90;;;13.51;100.00;99657.53;4988284;28;119458;-75
2022/10/18 03:15:30;;;;;;;30.90;20.20;;;13.50;99.90;;;13.48;100.00;99650.00;5003601;28;120306;-76
2022/10/18 03:17:58;;;;;;;26.58;18.55;;;13.60;99.90;;;13.46;100.00;99652.25;5004432;28;130212;-76
2022/10/18 03:20:27;;;;;;;30.20;18.75;;;13.50;99.90;;;13.41;100.00;99655.16;5004619;28;129825;-75
2022/10/18 03:22:56;;;;;;;28.00;20.23;;;13.40;99.90;;;13.36;100.00;99644.44;5002313;28;121812;-77
2022/10/18 03:25:25;;;;;;;29.15;20.52;;;13.40;99.90;;;13.31;100.00;99646.19;4985326;28;123242;-77
2022/10/18 03:27:53;;;;;;;28.00;19.80;;;13.30;99.90;;;13.22;100.00;99637.22;5010779;28;130602;-75
2022/10/18 03:30:22;;;;;;;27.35;18.70;;;13.20;99.90;;;13.23;100.00;99638.84;5027866;28;129494;-77
2022/10/18 03:32:53;;;;;;;26.98;20.25;;;13.20;99.90;;;13.21;100.00;99630.19;5030777;28;119386;-75
2022/10/18 03:35:21;;;;;;;29.05;19.73;;;13.10;99.90;;;13.20;100.00;99619.59;5006850;28;118231;-73
2022/10/18 03:37:50;;;;;;;28.75;19.80;;;13.10;99.90;;;13.12;100.00;99610.34;4998862;28;129729;-74
2022/10/18 03:40:20;;;;;;;27.83;20.60;;;13.00;99.90;;;13.13;100.00;99606.50;5025613;28;128853;-75
2022/10/18 03:42:48;;;;;;;30.23;20.45;;;13.00;99.90;;;13.11;100.00;99609.53;5026525;28;118186;-74
2022/10/18 03:45:17;;;;;;;26.27;19.17;;;13.00;99.90;;;13.07;100.00;99607.78;5040879;27;119494;-74
2022/10/18 03:47:45;;;;;;;27.42;19.80;;;13.00;99.90;;;13.09;100.00;99622.69;5031454;27;127725;-75
2022/10/18 03:50:14;;;;;;;28.95;19.35;;;13.00;99.90;;;13.11;100.00;99619.66;5046695;27;129838;-77
2022/10/18 03:52:42;;;;;;;28.48;19.85;;;13.10;99.90;;;13.14;100.00;99619.00;5049571;27;119965;-76
2022/10/18 03:55:11;;;;;;;30.80;20.63;;;13.10;99.90;;;13.12;100.00;99621.25;5055762;27;119869;-75
2022/10/18 03:57:40;;;;;;;27.27;20.05;;;13.00;99.90;;;13.09;100.00;99627.34;5052197;27;129793;-76
2022/10/18 04:00:11;;;;;;;27.83;20.33;;;12.90;99.90;;;13.07;100.00;99615.97;5037901;27;129053;-76
2022/10/18 04:02:42;;;;;;;30.20;20.90;;;12.90;99.90;;;13.02;100.00;99627.03;5054297;27;119595;-77
2022/10/18 04:05:11;;;;;;;33.03;21.25;;;12.90;99.90;;;13.00;100.00;99616.47;5039099;27;119290;-76
2022/10/18 04:07:40;;;;;;;29.38;20.83;;;12.90;99.90;;;12.99;100.00;99612.13;5039193;27;130299;-75
2022/10/18 04:10:09;;;;;;;29.92;21.20;;;12.90;99.90;;;12.99;100.00;99597.72;5056309;27;131761;-74
2022/10/18 04:12:38;;;;;;;29.75;20.90;;;12.80;99.90;;;12.98;100.00;99612.47;5010090;28;121976;-75
2022/10/18 04:15:10;;;;;;;30.60;20.35;;;12.80;99.90;;;12.95;100.00;99612.00;5023059;28;118954;-75
2022/10/18 04:17:38;;;;;;;27.80;20.02;;;12.70;99.90;;;12.90;100.00;99604.00;5018946;28;128689;-77
2022/10/18 04:20:08;;;;;;;29.45;20.75;;;12.70;99.90;;;12.90;100.00;99609.44;5022505;28;130701;-76
2022/10/18 04:22:37;;;;;;;29.58;20.90;;;12.80;99.90;;;12.90;100.00;99598.56;5034023;28;120047;-77
2022/10/18 04:25:06;;;;;;;29.45;21.45;;;12.70;99.90;;;12.89;100.00;99599.66;5017305;28;118749;-75
2022/10/18 04:27:36;;;;;;;30.20;20.80;;;12.70;99.90;;;12.89;100.00;99596.94;5027586;28;130666;-77
2022/10/18 04:30:08;;;;;;;32.58;21.58;;;12.70;99.90;;;12.85;100.00;99584.31;5024342;28;130125;-75
2022/10/18 04:32:36;;;;;;;29.48;20.48;;;12.60;99.90;;;12.74;100.00;99592.81;5025427;28;119607;-75
2022/10/18 04:35:06;;;;;;;28.65;20.08;;;12.70;99.90;;;12.82;100.00;99596.63;5002237;28;119848;-79
2022/10/18 04:37:35;;;;;;;32.35;21.00;;;12.80;99.90;;;12.84;100.00;99605.31;4987163;28;129248;-75
2022/10/18 04:40:05;;;;;;;29.05;21.05;;;12.90;99.90;;;12.87;100.00;99603.84;5004466;28;129895;-74
2022/10/18 04:42:34;;;;;;;29.55;20.92;;;12.90;99.90;;;12.88;100.00;99600.00;5005692;28;120538;-75
2022/10/18 04:45:03;;;;;;;30.13;21.60;;;12.90;99.90;;;12.84;100.00;99610.75;5005845;28;119303;-74
2022/10/18 04:47:33;;;;;;;28.52;20.13;;;12.90;99.90;;;12.85;100.00;99606.88;5006920;28;130298;-74
2022/10/18 04:50:02;;;;;;;28.88;19.98;;;12.90;99.90;;;12.87;100.00;99604.66;4992121;28;127183;-74
2022/10/18 04:52:30;;;;;;;29.20;20.52;;;12.90;99.90;;;12.85;100.00;99596.00;4992485;28;117929;-75
2022/10/18 04:54:59;;;;;;;29.92;20.17;;;12.90;99.90;;;12.81;100.00;99595.06;4972690;28;119109;-74
2022/10/18 04:57:27;;;;;;;29.27;21.13;;;12.80;99.90;;;12.85;100.00;99590.53;5000787;28;130571;-74
2022/10/18 04:59:56;;;;;;;28.67;20.42;;;12.80;99.90;;;12.84;100.00;99583.50;5001672;28;130189;-73
2022/10/18 05:02:24;;;;;;;30.65;20.23;;;12.80;99.90;;;12.83;100.00;99581.91;5000838;28;122876;-76
2022/10/18 05:04:54;;;;;;;29.73;21.35;;;12.80;99.90;;;12.85;100.00;99585.09;5003219;28;120830;-74
2022/10/18 05:07:22;;;;;;;31.13;21.63;;;12.80;99.90;;;12.88;100.00;99589.91;5000615;28;130327;-73
2022/10/18 05:09:51;;;;;;;32.22;20.75;;;12.80;99.90;;;12.86;100.00;99592.16;5000373;28;129746;-72
2022/10/18 05:12:21;;;;;;;31.30;21.25;;;12.90;99.90;;;12.89;100.00;99591.50;5002542;28;121691;-73
2022/10/18 05:14:49;;;;;;;26.73;20.02;;;12.90;99.90;;;12.95;100.00;99583.97;5000847;28;119500;-72
2022/10/18 05:17:18;;;;;;;28.48;19.83;;;12.90;99.90;;;13.02;100.00;99594.34;5001727;28;129571;-73
2022/10/18 05:19:47;;;;;;;33.40;21.25;;;12.90;99.90;;;13.05;100.00;99604.59;4985956;28;128832;-77
2022/10/18 05:22:17;;;;;;;29.23;20.65;;;12.90;99.90;;;13.15;100.00;99603.44;5000925;28;121059;-72
2022/10/18 05:24:45;;;;;;;31.65;20.83;;;12.90;99.90;;;13.15;100.00;99609.72;5001037;28;119548;-74
2022/10/18 05:27:14;;;;;;;29.58;20.30;;;13.00;99.90;;;13.22;100.00;99610.00;5000913;28;128544;-73
2022/10/18 05:29:42;;;;;;;29.23;20.42;;;13.00;99.90;;;13.19;100.00;99610.63;5000759;28;129770;-74
2022/10/18 05:32:10;;;;;;;30.67;20.55;;;13.00;99.90;;;13.21;100.00;99613.81;4983543;28;119750;-73
2022/10/18 05:34:39;;;;;;;30.95;20.15;;;13.10;99.90;;;13.27;100.00;99619.91;4986909;28;118485;-74
2022/10/18 05:37:08;;;;;;;29.63;20.58;;;13.10;99.90;;;13.25;100.00;99614.78;5002004;28;129968;-74
2022/10/18 05:39:39;;;;;;;28.45;19.80;;;13.20;99.90;;;13.25;100.00;99614.00;5002483;28;129275;-73
2022/10/18 05:42:08;;;;;;;28.83;19.52;;;13.20;99.90;;;13.26;100.00;99621.84;5002447;28;120158;-74
2022/10/18 05:44:36;;;;;;;29.35;19.23;;;13.20;99.90;;;13.37;100.00;99616.03;5001289;28;119500;-74
2022/10/18 05:47:05;;;;;;;27.00;19.67;;;13.20;99.90;;;13.36;100.00;99620.72;5000729;28;130159;-74
2022/10/18 05:49:34;;;;;;;27.08;20.40;;;13.20;99.90;;;13.47;100.00;99623.88;5000423;28;129476;-73
2022/10/18 05:52:03;;;;;;;28.73;18.98;;;13.20;99.90;;;13.53;100.00;99628.00;4984022;28;120085;-72
2022/10/18 05:54:32;;;;;;;28.88;19.50;;;13.30;99.90;;;13.54;100.00;99634.25;5000187;28;121825;-73
2022/10/18 05:57:02;;;;;;;31.63;18.88;;;13.30;99.90;;;13.60;100.00;99625.59;4986064;28;129067;-72
2022/10/18 05:59:31;;;;;;;28.15;18.45;;;13.30;99.90;;;13.72;100.00;99626.81;4985465;28;128429;-75
2022/10/18 06:02:00;;;;;;;38.35;20.25;;;13.40;99.90;;;13.83;100.00;99622.56;5000208;28;120015;-74
2022/10/18 06:04:28;;;;;;;26.58;19.08;;;13.40;99.90;;;13.89;100.00;99626.69;5000612;28;120146;-72
2022/10/18 06:06:57;;;;;;;25.90;18.58;;;13.50;99.90;;;14.06;100.00;99625.00;4999535;28;129554;-72
2022/10/18 06:09:27;;;;;;;28.50;18.20;;;13.60;99.10;;;14.02;100.00;99622.09;5000400;28;129559;-72
2022/10/18 06:11:56;;;;;;;27.63;18.83;;;13.70;95.00;;;14.13;100.00;99623.34;4985279;28;118516;-74
2022/10/18 06:14:26;;;;;;;27.30;19.02;;;13.70;91.60;;;14.27;100.00;99625.00;4985774;28;118328;-74
2022/10/18 06:16:55;;;;;;;25.85;18.77;;;13.80;91.30;;;14.39;100.00;99622.31;4998608;28;129823;-73
2022/10/18 06:19:23;;;;;;;25.33;18.55;;;13.80;91.30;;;14.36;100.00;99626.50;5000939;28;129652;-73
2022/10/18 06:21:52;;;;;;;24.10;17.63;;;13.90;89.40;;;14.47;100.00;99617.91;4969747;28;118417;-74
2022/10/18 06:24:21;;;;;;;27.27;17.77;;;13.90;82.30;;;14.50;100.00;99611.78;4999875;28;120080;-73
2022/10/18 06:26:50;;;;;;;26.77;17.42;;;14.00;73.80;;;14.71;100.00;99611.81;4998560;28;129970;-73
2022/10/18 06:29:18;;;;;;;21.95;17.05;;;14.10;73.10;;;14.76;100.00;99610.75;4999418;28;129515;-73
2022/10/18 06:31:48;;;;;;;27.33;17.83;;;14.20;69.10;;;14.88;100.00;99605.34;5000113;28;119529;-73
2022/10/18 06:34:17;;;;;;;24.25;16.98;;;14.20;60.50;;;15.02;100.00;99605.84;4968925;28;119365;-72
2022/10/18 06:36:45;;;;;;;24.70;17.52;;;14.30;55.20;;;15.13;100.00;99603.47;5000152;28;129845;-73
2022/10/18 06:39:13;;;;;;;30.75;18.17;;;14.40;47.80;;;15.08;100.00;99599.03;5003404;28;129285;-74
2022/10/18 06:41:42;;;;;;;27.67;18.10;;;14.30;48.20;;;15.22;100.00;99608.81;5001962;28;121967;-73
2022/10/18 06:44:21;;;;;;;23.83;17.27;;;14.40;43.80;;;15.20;100.00;99608.38;4989271;28;121489;-74
2022/10/18 06:46:52;;;;;;;25.95;17.58;;;14.40;44.20;;;15.25;100.00;99600.75;5002828;28;129924;-72
2022/10/18 06:49:21;;;;;;;26.33;18.30;;;14.50;39.60;;;15.23;100.00;99610.44;4988793;28;128418;-76
2022/10/18 06:51:49;;;;;;;24.55;18.38;;;14.60;32.80;;;15.24;100.00;99609.31;4990081;28;119742;-72
2022/10/18 06:54:18;;;;;;;28.20;17.35;;;14.60;37.10;;;15.23;100.00;99604.97;5003168;28;119603;-72
2022/10/18 06:56:46;;;;;;;26.75;18.58;;;14.60;36.00;;;15.33;100.00;99612.69;5005271;28;129122;-78
2022/10/18 06:59:15;;;;;;;28.17;18.20;;;14.50;35.30;;;15.33;100.00;99620.13;5003205;28;129765;-73
2022/10/18 07:01:43;;;;;;;26.48;17.88;;;14.70;35.40;;;15.43;100.00;99617.72;5004462;28;119722;-74
2022/10/18 07:04:13;;;;;;;27.95;19.05;;;14.90;27.60;;;15.68;100.00;99622.44;5005298;28;119135;-74
2022/10/18 07:06:42;;;;;;;29.50;19.13;;;14.90;22.40;;;15.58;100.00;99640.06;4990657;28;128938;-73
2022/10/18 07:09:10;;;;;;;26.88;17.00;;;15.00;21.90;;;15.69;100.00;99643.16;4989179;28;128619;-75
2022/10/18 07:11:39;;;;;;;25.73;17.35;;;15.10;21.40;;;15.55;100.00;99621.59;4991908;28;118608;-76
2022/10/18 07:14:08;;;;;;;25.20;17.65;;;15.10;23.80;;;15.35;100.00;99618.66;4993516;28;118344;-75
2022/10/18 07:16:37;;;;;;;26.27;17.67;;;15.10;26.90;;;15.54;100.00;99601.66;5023827;28;130530;-74
2022/10/18 07:19:05;;;;;;;28.02;18.38;;;15.10;24.40;;;15.80;100.00;99601.34;5025107;28;129654;-73
2022/10/18 07:21:35;;;;;;;28.17;18.75;;;15.20;22.60;;;16.07;100.00;99609.19;5016591;28;119651;-74
2022/10/18 07:24:04;;;;;;;32.17;18.55;;;15.40;21.20;;;15.85;100.00;99596.75;5007124;28;120155;-79
2022/10/18 07:26:34;;;;;;;29.45;18.65;;;15.30;24.10;;;15.89;100.00;99598.47;5003554;28;130422;-72
2022/10/18 07:29:08;;;;;;;32.67;19.88;;;15.30;24.40;;;15.93;100.00;99599.38;5002656;28;130143;-75
2022/10/18 07:31:37;;;;;;;28.45;18.17;;;15.30;26.30;;;15.95;100.00;99590.81;4987897;28;120824;-75
2022/10/18 07:34:07;;;;;;;26.30;18.45;;;15.30;24.90;;;16.16;100.00;99599.69;5003467;28;120822;-73
2022/10/18 07:36:37;;;;;;;27.33;17.75;;;15.40;24.30;;;16.24;100.00;99597.16;5001868;28;130829;-74
2022/10/18 07:39:06;;;;;;;27.17;17.27;;;15.60;20.40;;;16.29;100.00;99605.13;5002883;28;129283;-76
2022/10/18 07:41:35;;;;;;;27.88;18.80;;;15.60;18.30;;;16.26;100.00;99594.84;5004179;28;119532;-72
2022/10/18 07:44:05;;;;;;;27.77;19.60;;;15.60;18.10;;;16.41;99.61;99602.34;5005169;28;119318;-77
2022/10/18 07:46:34;;;;;;;28.40;19.17;;;15.60;18.00;;;16.56;98.77;99608.22;5002820;28;130408;-72
2022/10/18 07:49:02;;;;;;;23.50;17.08;;;15.70;14.20;;;16.81;97.48;99598.75;5003534;28;129738;-72
2022/10/18 07:51:33;;;;;;;25.55;16.52;;;16.00;7.10;;;16.92;96.20;99603.72;5003491;28;119661;-75
2022/10/18 07:54:04;;;;;;;23.70;17.58;;;16.00;1.40;;;17.08;95.13;99618.25;5004140;28;119949;-73
2022/10/18 07:56:32;;;;;;;22.45;15.65;;;16.20;1.00;;;17.52;92.85;99609.94;5000781;28;129863;-74
2022/10/18 07:59:00;;;;;;;22.08;15.90;;;16.40;1.00;;;17.38;93.20;99615.88;5003400;28;129597;-75
2022/10/18 08:01:29;;;;;;;23.35;16.45;;;16.40;1.00;;;17.52;91.96;99620.91;5002990;28;120032;-76
2022/10/18 08:03:59;;;;;;;24.80;16.02;;;16.60;1.00;;;17.97;89.84;99613.34;5001386;28;120503;-74
2022/10/18 08:06:28;;;;;;;24.10;16.13;;;16.70;1.00;;;18.14;89.18;99617.63;5001478;28;130034;-75
2022/10/18 08:08:57;;;;;;;19.77;14.75;;;16.90;1.00;;;17.98;89.08;99603.16;4985367;28;129556;-74
2022/10/18 08:11:27;;;;;;;23.38;15.65;;;16.80;1.00;;;18.11;88.54;99610.13;5001547;28;120312;-74
2022/10/18 08:13:56;;;;;;;21.38;15.63;;;16.80;1.00;;;17.89;89.32;99601.41;5002096;28;119779;-74
2022/10/18 08:16:27;;;;;;;22.92;14.63;;;16.70;1.00;;;17.94;89.25;99614.06;4986325;28;129592;-74
2022/10/18 08:18:58;;;;;;;22.48;16.35;;;16.60;1.00;;;18.18;87.96;99602.00;5001098;28;129396;-74
2022/10/18 08:21:27;;;;;;;22.45;14.82;;;16.70;1.00;;;18.29;87.21;99597.56;5002120;28;122528;-74
2022/10/18 08:23:55;;;;;;;20.83;14.13;;;16.90;1.00;;;18.32;87.18;99607.81;5002352;28;121860;-72
2022/10/18 08:26:25;;;;;;;18.38;13.68;;;16.90;1.00;;;18.24;87.18;99611.56;4969867;28;130558;-74
2022/10/18 08:28:54;;;;;;;18.83;12.75;;;16.90;1.00;;;18.36;86.73;99618.09;5000806;28;129257;-73
2022/10/18 08:31:22;;;;;;;19.55;13.73;;;16.90;1.00;;;18.31;87.11;99614.47;5001268;28;119504;-74
2022/10/18 08:33:51;;;;;;;18.50;13.57;;;17.10;1.00;;;18.17;87.80;99605.13;5001690;28;119950;-74
2022/10/18 08:36:19;;;;;;;19.40;13.18;;;17.00;1.00;;;18.40;87.46;99602.44;5000836;28;130152;-73
2022/10/18 08:38:48;;;;;;;17.67;11.93;;;17.20;1.00;;;18.31;87.59;99587.00;5001153;28;130193;-72
2022/10/18 08:42:03;;;;;;;18.23;12.35;;;17.10;1.00;;;18.20;87.57;99599.72;5001224;28;119768;-74
2022/10/18 08:44:33;;;;;;;22.35;13.68;;;17.00;1.00;;;18.44;86.66;99606.06;4991112;28;119508;-73
2022/10/18 08:47:06;;;;;;;16.05;11.73;;;17.00;1.00;;;18.37;86.68;99608.66;4983707;28;129436;-73
2022/10/18 08:49:41;;;;;;;18.08;11.77;;;16.90;1.00;;;18.09;88.65;99599.50;5001533;28;129392;-74
2022/10/18 08:52:24;;;;;;;20.98;12.25;;;17.00;1.00;;;18.25;87.73;99596.69;4986004;28;119227;-76
2022/10/18 08:55:00;;;;;;;15.63;11.35;;;17.20;1.00;;;18.74;85.74;99602.72;5000134;28;119472;-73
2022/10/18 08:57:31;;;;;;;;;;;17.20;1.00;;;18.84;85.14;99604.88;4984718;28;129060;-73
2022/10/18 09:00:02;;;;;;;17.55;11.93;;;17.40;1.00;;;18.92;84.31;99601.13;4969400;28;106611;-75
2022/10/18 09:02:49;;;;;;;18.17;12.25;;;17.40;1.00;;;18.82;84.61;99604.44;5001895;28;119440;-72
2022/10/18 09:05:28;;;;;;;20.48;11.50;;;17.30;1.00;;;19.02;83.53;99596.97;5000729;28;119293;-72
2022/10/18 09:08:34;;;;;;;19.55;12.07;;;17.60;1.00;;;19.33;81.66;99595.94;4999967;28;130487;-74
2022/10/18 09:11:20;;;;;;;19.48;11.50;;;17.80;1.00;;;19.46;80.71;99602.03;5000117;28;129502;-74
2022/10/18 09:14:44;;;;;;;17.58;10.93;;;17.70;1.00;;;19.32;81.25;99597.09;4980978;28;121865;-73
2022/10/18 09:17:25;;;;;;;16.35;11.25;;;17.90;1.00;;;19.13;82.02;99602.66;4986156;28;120358;-73
2022/10/18 09:20:18;;;;;;;14.82;10.50;;;17.80;1.00;;;18.97;82.62;99600.81;5000605;28;129960;-73
2022/10/18 09:22:55;;;;;;;14.80;10.10;;;17.80;1.00;;;18.75;83.98;99607.84;4999687;28;130019;-75
2022/10/18 09:25:28;;;;;;;16.45;10.35;;;17.60;1.00;;;18.66;84.27;99608.06;4985969;28;119131;-74
2022/10/18 09:28:10;;;;;;;14.60;10.57;;;17.20;1.00;;;18.83;83.55;99604.06;4999764;28;120063;-72
2022/10/18 09:30:52;;;;;;;18.83;11.88;;;17.30;1.00;;;18.95;83.97;99605.13;4984844;28;129306;-73
2022/10/18 09:33:50;;;;;;;17.27;10.45;;;17.70;1.00;;;19.15;81.63;99597.59;5000184;28;130120;-73
2022/10/18 09:36:24;;;;;;;15.02;9.57;;;17.80;1.00;;;19.12;82.21;99604.63;4999231;28;119697;-75
2022/10/18 09:38:58;;;;;;;13.60;9.50;;;17.70;1.00;;;19.09;82.30;99607.28;5000206;28;119445;-75
2022/10/18 09:41:33;;;;;;;15.63;10.60;;;17.80;1.00;;;19.08;82.64;99606.50;4998989;28;130524;-73
2022/10/18 09:44:11;;;;;;;15.48;10.45;;;17.60;1.00;;;18.77;83.77;99616.53;5000727;28;129338;-74
2022/10/18 09:46:47;;;;;;;16.95;11.35;;;17.30;1.00;;;18.65;84.83;99612.00;5000143;28;119767;-73
2022/10/18 09:49:19;;;;;;;;;;;17.30;1.00;;;18.46;86.29;99614.75;5000358;28;119389;-73
2022/10/18 09:51:50;;;;;;;14.77;10.48;;;17.20;1.00;;;18.48;86.40;99620.66;4999485;28;130718;-73
2022/10/18 09:54:28;;;;;;;16.67;11.60;;;17.40;1.00;;;18.52;86.05;99621.53;4999559;28;129893;-74
2022/10/18 09:57:03;;;;;;;19.85;11.98;;;17.20;1.00;;;18.53;86.94;99612.16;4999807;28;119720;-74
2022/10/18 09:59:41;;;;;;;17.23;11.80;;;17.30;1.00;;;18.33;87.74;99620.38;5000780;28;120012;-73
2022/10/18 10:02:14;;;;;;;17.20;11.25;;;17.10;1.00;;;18.20;88.29;99616.19;4999280;28;129791;-73
2022/10/18 10:04:43;;;;;;;16.98;11.15;;;17.10;1.00;;;18.13;88.96;99616.03;4998293;28;130720;-72
2022/10/18 10:07:17;;;;;;;15.07;11.07;;;17.00;1.00;;;18.16;89.15;99620.03;4998633;28;121771;-74
2022/10/18 10:09:48;;;;;;;21.15;12.65;;;17.00;1.00;;;18.11;89.27;99623.84;4985099;28;121311;-73
2022/10/18 10:12:29;;;;;;;17.10;11.93;;;17.00;1.00;;;17.86;90.34;99635.03;4984430;28;129804;-75
2022/10/18 10:15:14;;;;;;;17.13;11.18;;;16.90;1.00;;;17.89;90.80;99617.88;5002402;28;130063;-72
2022/10/18 10:17:45;;;;;;;18.08;10.88;;;16.90;1.00;;;18.06;88.54;99611.19;5003414;28;120038;-73
2022/10/18 10:20:23;;;;;;;17.13;9.45;;;17.10;1.00;;;18.17;86.95;99605.94;5003432;28;119302;-74